Terminal Aerodrome Forecast
Issued by NWS

Home | Current Version | Previous Version | Text Only | Print | Product List | Glossary On
Versions: 1 2 3 4 5 6 7 8 9 10 11 12 13 14 15 16 17 18 19 20
000
FTUS43 KMKX 042343
TAFUES
TAF
KUES 042343Z 0500/0524 VRB03KT 1SM -SN OVC003
      TEMPO 0500/0501 3/4SM -SN
     FM050200 VRB03KT 4SM -SN BR OVC006
     FM050400 24008KT P6SM OVC010
     FM050900 25008KT P6SM BKN035
     FM051200 24006KT P6SM SCT200
     FM051500 21006KT P6SM BKN200=

USA.gov is the U.S. government's official web portal to all federal, state and local government web resources and services.